sensor_id;sensor_type;location;lat;lon;timestamp;P1;durP1;ratioP1;P2;durP2;ratioP2
11835;SDS011;5977;51.972;7.640;2023-12-28T00:00:09;143.70;;;46.70;;
11835;SDS011;5977;51.972;7.640;2023-12-28T00:02:37;144.00;;;46.77;;
11835;SDS011;5977;51.972;7.640;2023-12-28T00:05:07;142.67;;;46.20;;
11835;SDS011;5977;51.972;7.640;2023-12-28T00:07:35;143.17;;;46.50;;
11835;SDS011;5977;51.972;7.640;2023-12-28T00:10:03;142.60;;;46.20;;
11835;SDS011;5977;51.972;7.640;2023-12-28T00:12:31;142.77;;;46.33;;
11835;SDS011;5977;51.972;7.640;2023-12-28T00:14:59;142.87;;;46.30;;
11835;SDS011;5977;51.972;7.640;2023-12-28T00:17:28;142.80;;;46.40;;
11835;SDS011;5977;51.972;7.640;2023-12-28T00:19:56;142.77;;;46.40;;
11835;SDS011;5977;51.972;7.640;2023-12-28T00:22:24;142.67;;;46.33;;
11835;SDS011;5977;51.972;7.640;2023-12-28T00:24:52;142.03;;;46.07;;
11835;SDS011;5977;51.972;7.640;2023-12-28T00:27:20;142.47;;;46.27;;
11835;SDS011;5977;51.972;7.640;2023-12-28T00:29:48;142.27;;;46.20;;
11835;SDS011;5977;51.972;7.640;2023-12-28T00:32:16;142.30;;;46.20;;
11835;SDS011;5977;51.972;7.640;2023-12-28T00:34:45;141.93;;;46.00;;
11835;SDS011;5977;51.972;7.640;2023-12-28T00:37:13;141.73;;;45.93;;
11835;SDS011;5977;51.972;7.640;2023-12-28T00:39:42;142.57;;;46.23;;
11835;SDS011;5977;51.972;7.640;2023-12-28T00:42:10;142.10;;;46.10;;
11835;SDS011;5977;51.972;7.640;2023-12-28T00:44:38;141.50;;;45.97;;
11835;SDS011;5977;51.972;7.640;2023-12-28T00:47:07;141.77;;;45.97;;
11835;SDS011;5977;51.972;7.640;2023-12-28T00:49:35;142.23;;;46.10;;
11835;SDS011;5977;51.972;7.640;2023-12-28T00:52:05;141.53;;;46.00;;
11835;SDS011;5977;51.972;7.640;2023-12-28T00:54:33;142.37;;;46.30;;
11835;SDS011;5977;51.972;7.640;2023-12-28T00:57:04;141.53;;;45.93;;
11835;SDS011;5977;51.972;7.640;2023-12-28T00:59:33;141.17;;;45.83;;
11835;SDS011;5977;51.972;7.640;2023-12-28T01:02:01;141.83;;;45.97;;
11835;SDS011;5977;51.972;7.640;2023-12-28T01:04:29;141.63;;;46.00;;
11835;SDS011;5977;51.972;7.640;2023-12-28T01:06:57;142.17;;;46.10;;
11835;SDS011;5977;51.972;7.640;2023-12-28T01:09:29;141.83;;;46.10;;
11835;SDS011;5977;51.972;7.640;2023-12-28T01:11:58;142.27;;;46.23;;
11835;SDS011;5977;51.972;7.640;2023-12-28T01:14:26;141.90;;;46.10;;
11835;SDS011;5977;51.972;7.640;2023-12-28T01:16:54;142.33;;;46.30;;
11835;SDS011;5977;51.972;7.640;2023-12-28T01:19:22;142.07;;;46.13;;
11835;SDS011;5977;51.972;7.640;2023-12-28T01:21:50;141.60;;;45.97;;
11835;SDS011;5977;51.972;7.640;2023-12-28T01:24:19;141.73;;;46.10;;
11835;SDS011;5977;51.972;7.640;2023-12-28T01:26:48;141.50;;;45.87;;
11835;SDS011;5977;51.972;7.640;2023-12-28T01:29:16;141.87;;;46.00;;
11835;SDS011;5977;51.972;7.640;2023-12-28T01:31:44;141.53;;;45.93;;
11835;SDS011;5977;51.972;7.640;2023-12-28T01:34:11;141.63;;;46.10;;
11835;SDS011;5977;51.972;7.640;2023-12-28T01:36:40;141.23;;;45.97;;
11835;SDS011;5977;51.972;7.640;2023-12-28T01:39:10;141.80;;;46.10;;
11835;SDS011;5977;51.972;7.640;2023-12-28T01:41:39;141.13;;;45.77;;
11835;SDS011;5977;51.972;7.640;2023-12-28T01:44:08;141.70;;;46.13;;
11835;SDS011;5977;51.972;7.640;2023-12-28T01:46:36;141.40;;;45.90;;
11835;SDS011;5977;51.972;7.640;2023-12-28T01:49:04;141.63;;;46.00;;
11835;SDS011;5977;51.972;7.640;2023-12-28T01:51:33;141.07;;;45.80;;
11835;SDS011;5977;51.972;7.640;2023-12-28T01:54:01;141.50;;;45.97;;
11835;SDS011;5977;51.972;7.640;2023-12-28T01:56:29;141.90;;;46.10;;
11835;SDS011;5977;51.972;7.640;2023-12-28T01:58:57;141.23;;;46.00;;
11835;SDS011;5977;51.972;7.640;2023-12-28T02:01:27;141.43;;;46.03;;
11835;SDS011;5977;51.972;7.640;2023-12-28T02:03:55;141.93;;;46.07;;
11835;SDS011;5977;51.972;7.640;2023-12-28T02:06:25;141.63;;;46.00;;
11835;SDS011;5977;51.972;7.640;2023-12-28T02:08:54;141.70;;;46.03;;
11835;SDS011;5977;51.972;7.640;2023-12-28T02:11:21;140.93;;;45.77;;
11835;SDS011;5977;51.972;7.640;2023-12-28T02:13:49;141.20;;;45.87;;
11835;SDS011;5977;51.972;7.640;2023-12-28T02:16:20;141.73;;;46.13;;
11835;SDS011;5977;51.972;7.640;2023-12-28T02:18:54;141.50;;;46.10;;
11835;SDS011;5977;51.972;7.640;2023-12-28T02:21:26;141.97;;;46.10;;
11835;SDS011;5977;51.972;7.640;2023-12-28T02:23:55;141.40;;;46.00;;
11835;SDS011;5977;51.972;7.640;2023-12-28T02:26:24;141.10;;;45.90;;
11835;SDS011;5977;51.972;7.640;2023-12-28T02:28:52;141.17;;;45.93;;
11835;SDS011;5977;51.972;7.640;2023-12-28T02:31:21;141.27;;;45.90;;
11835;SDS011;5977;51.972;7.640;2023-12-28T02:33:57;141.47;;;46.10;;
11835;SDS011;5977;51.972;7.640;2023-12-28T02:36:31;141.83;;;46.10;;
11835;SDS011;5977;51.972;7.640;2023-12-28T02:39:03;141.17;;;46.00;;
11835;SDS011;5977;51.972;7.640;2023-12-28T02:41:34;141.40;;;46.00;;
11835;SDS011;5977;51.972;7.640;2023-12-28T02:44:03;141.63;;;46.07;;
11835;SDS011;5977;51.972;7.640;2023-12-28T02:46:31;141.53;;;46.07;;
11835;SDS011;5977;51.972;7.640;2023-12-28T02:48:58;140.63;;;45.77;;
11835;SDS011;5977;51.972;7.640;2023-12-28T02:51:26;141.73;;;46.00;;
11835;SDS011;5977;51.972;7.640;2023-12-28T02:53:54;141.97;;;46.20;;
11835;SDS011;5977;51.972;7.640;2023-12-28T02:56:22;140.70;;;45.80;;
11835;SDS011;5977;51.972;7.640;2023-12-28T02:58:51;141.57;;;45.90;;
11835;SDS011;5977;51.972;7.640;2023-12-28T03:01:19;141.77;;;46.20;;
11835;SDS011;5977;51.972;7.640;2023-12-28T03:03:48;141.20;;;46.00;;
11835;SDS011;5977;51.972;7.640;2023-12-28T03:06:16;141.13;;;45.87;;
11835;SDS011;5977;51.972;7.640;2023-12-28T03:08:44;141.50;;;45.97;;
11835;SDS011;5977;51.972;7.640;2023-12-28T03:11:12;141.90;;;46.20;;
11835;SDS011;5977;51.972;7.640;2023-12-28T03:13:41;141.53;;;46.23;;
11835;SDS011;5977;51.972;7.640;2023-12-28T03:16:11;141.33;;;45.87;;
11835;SDS011;5977;51.972;7.640;2023-12-28T03:18:40;141.07;;;45.90;;
11835;SDS011;5977;51.972;7.640;2023-12-28T03:21:08;141.60;;;46.13;;
11835;SDS011;5977;51.972;7.640;2023-12-28T03:23:36;141.83;;;46.27;;
11835;SDS011;5977;51.972;7.640;2023-12-28T03:26:05;142.10;;;46.13;;
11835;SDS011;5977;51.972;7.640;2023-12-28T03:28:33;141.73;;;46.10;;
11835;SDS011;5977;51.972;7.640;2023-12-28T03:31:01;142.30;;;46.20;;
11835;SDS011;5977;51.972;7.640;2023-12-28T03:33:31;141.23;;;45.93;;
11835;SDS011;5977;51.972;7.640;2023-12-28T03:35:59;141.57;;;46.10;;
11835;SDS011;5977;51.972;7.640;2023-12-28T03:38:27;141.17;;;45.87;;
11835;SDS011;5977;51.972;7.640;2023-12-28T03:40:55;142.07;;;46.20;;
11835;SDS011;5977;51.972;7.640;2023-12-28T03:43:23;140.63;;;45.70;;
11835;SDS011;5977;51.972;7.640;2023-12-28T03:45:51;141.57;;;46.03;;
11835;SDS011;5977;51.972;7.640;2023-12-28T03:48:18;141.67;;;46.20;;
11835;SDS011;5977;51.972;7.640;2023-12-28T03:50:48;141.53;;;46.10;;
11835;SDS011;5977;51.972;7.640;2023-12-28T03:53:16;141.60;;;46.07;;
11835;SDS011;5977;51.972;7.640;2023-12-28T03:55:43;141.53;;;45.97;;
11835;SDS011;5977;51.972;7.640;2023-12-28T03:58:11;141.43;;;46.00;;
11835;SDS011;5977;51.972;7.640;2023-12-28T04:00:39;141.10;;;45.90;;
11835;SDS011;5977;51.972;7.640;2023-12-28T04:03:07;141.57;;;46.00;;
11835;SDS011;5977;51.972;7.640;2023-12-28T04:05:35;141.40;;;46.10;;
11835;SDS011;5977;51.972;7.640;2023-12-28T04:08:05;141.20;;;45.93;;
11835;SDS011;5977;51.972;7.640;2023-12-28T04:10:34;141.67;;;46.00;;
11835;SDS011;5977;51.972;7.640;2023-12-28T04:13:03;141.47;;;46.07;;
11835;SDS011;5977;51.972;7.640;2023-12-28T04:15:31;141.90;;;46.13;;
11835;SDS011;5977;51.972;7.640;2023-12-28T04:17:58;141.90;;;46.13;;
11835;SDS011;5977;51.972;7.640;2023-12-28T04:20:27;141.60;;;46.17;;
11835;SDS011;5977;51.972;7.640;2023-12-28T04:22:55;141.70;;;46.00;;
11835;SDS011;5977;51.972;7.640;2023-12-28T04:25:25;141.73;;;46.13;;
11835;SDS011;5977;51.972;7.640;2023-12-28T04:27:52;141.73;;;46.10;;
11835;SDS011;5977;51.972;7.640;2023-12-28T04:30:20;142.17;;;46.30;;
11835;SDS011;5977;51.972;7.640;2023-12-28T04:32:48;141.63;;;46.03;;
11835;SDS011;5977;51.972;7.640;2023-12-28T04:35:16;141.57;;;46.13;;
11835;SDS011;5977;51.972;7.640;2023-12-28T04:37:44;141.53;;;45.97;;
11835;SDS011;5977;51.972;7.640;2023-12-28T04:40:12;142.03;;;46.20;;
11835;SDS011;5977;51.972;7.640;2023-12-28T04:42:42;142.37;;;46.30;;
11835;SDS011;5977;51.972;7.640;2023-12-28T04:45:11;142.10;;;46.23;;
11835;SDS011;5977;51.972;7.640;2023-12-28T04:47:39;141.87;;;46.17;;
11835;SDS011;5977;51.972;7.640;2023-12-28T04:50:08;141.83;;;46.17;;
11835;SDS011;5977;51.972;7.640;2023-12-28T04:52:36;142.03;;;46.30;;
11835;SDS011;5977;51.972;7.640;2023-12-28T04:55:07;141.20;;;45.90;;
11835;SDS011;5977;51.972;7.640;2023-12-28T04:57:34;141.60;;;46.07;;
11835;SDS011;5977;51.972;7.640;2023-12-28T05:00:04;141.90;;;46.17;;
11835;SDS011;5977;51.972;7.640;2023-12-28T05:02:34;141.67;;;46.17;;
11835;SDS011;5977;51.972;7.640;2023-12-28T05:05:02;141.70;;;46.10;;
11835;SDS011;5977;51.972;7.640;2023-12-28T05:07:30;141.80;;;46.10;;
11835;SDS011;5977;51.972;7.640;2023-12-28T05:09:58;141.80;;;46.20;;
11835;SDS011;5977;51.972;7.640;2023-12-28T05:12:26;142.33;;;46.40;;
11835;SDS011;5977;51.972;7.640;2023-12-28T05:15:10;143.07;;;46.70;;
11835;SDS011;5977;51.972;7.640;2023-12-28T05:17:38;143.13;;;46.63;;
11835;SDS011;5977;51.972;7.640;2023-12-28T05:20:05;143.40;;;46.80;;
11835;SDS011;5977;51.972;7.640;2023-12-28T05:22:34;143.10;;;46.60;;
11835;SDS011;5977;51.972;7.640;2023-12-28T05:25:02;143.10;;;46.60;;
11835;SDS011;5977;51.972;7.640;2023-12-28T05:27:30;143.47;;;46.77;;
11835;SDS011;5977;51.972;7.640;2023-12-28T05:29:58;143.83;;;46.93;;
11835;SDS011;5977;51.972;7.640;2023-12-28T05:32:27;143.17;;;46.57;;
11835;SDS011;5977;51.972;7.640;2023-12-28T05:34:55;144.23;;;47.03;;
11835;SDS011;5977;51.972;7.640;2023-12-28T05:37:23;144.63;;;47.20;;
11835;SDS011;5977;51.972;7.640;2023-12-28T05:39:50;144.23;;;47.00;;
11835;SDS011;5977;51.972;7.640;2023-12-28T05:42:18;144.63;;;47.17;;
11835;SDS011;5977;51.972;7.640;2023-12-28T05:44:46;144.33;;;47.00;;
11835;SDS011;5977;51.972;7.640;2023-12-28T05:47:14;143.53;;;46.90;;
11835;SDS011;5977;51.972;7.640;2023-12-28T05:49:43;144.40;;;47.00;;
11835;SDS011;5977;51.972;7.640;2023-12-28T05:52:11;144.80;;;47.27;;
11835;SDS011;5977;51.972;7.640;2023-12-28T05:54:41;144.37;;;47.07;;
11835;SDS011;5977;51.972;7.640;2023-12-28T05:57:09;144.33;;;47.07;;
11835;SDS011;5977;51.972;7.640;2023-12-28T05:59:38;144.83;;;47.20;;
11835;SDS011;5977;51.972;7.640;2023-12-28T06:02:07;145.00;;;47.37;;
11835;SDS011;5977;51.972;7.640;2023-12-28T06:04:35;144.83;;;47.10;;
11835;SDS011;5977;51.972;7.640;2023-12-28T06:07:04;144.63;;;47.07;;
11835;SDS011;5977;51.972;7.640;2023-12-28T06:09:32;145.23;;;47.30;;
11835;SDS011;5977;51.972;7.640;2023-12-28T06:12:00;145.07;;;47.23;;
11835;SDS011;5977;51.972;7.640;2023-12-28T06:14:28;145.83;;;47.53;;
11835;SDS011;5977;51.972;7.640;2023-12-28T06:16:56;145.73;;;47.67;;
11835;SDS011;5977;51.972;7.640;2023-12-28T06:19:24;145.00;;;47.27;;
11835;SDS011;5977;51.972;7.640;2023-12-28T06:21:52;144.93;;;47.23;;
11835;SDS011;5977;51.972;7.640;2023-12-28T06:24:22;144.50;;;47.10;;
11835;SDS011;5977;51.972;7.640;2023-12-28T06:26:50;145.47;;;47.40;;
11835;SDS011;5977;51.972;7.640;2023-12-28T06:29:17;145.47;;;47.47;;
11835;SDS011;5977;51.972;7.640;2023-12-28T06:31:45;145.60;;;47.30;;
11835;SDS011;5977;51.972;7.640;2023-12-28T06:34:13;145.73;;;47.43;;
11835;SDS011;5977;51.972;7.640;2023-12-28T06:36:42;145.80;;;47.53;;
11835;SDS011;5977;51.972;7.640;2023-12-28T06:39:10;145.17;;;47.43;;
11835;SDS011;5977;51.972;7.640;2023-12-28T06:41:39;144.47;;;47.00;;
11835;SDS011;5977;51.972;7.640;2023-12-28T06:44:07;145.47;;;47.37;;
11835;SDS011;5977;51.972;7.640;2023-12-28T06:46:36;145.83;;;47.57;;
11835;SDS011;5977;51.972;7.640;2023-12-28T06:49:04;145.70;;;47.47;;
11835;SDS011;5977;51.972;7.640;2023-12-28T06:51:36;145.07;;;47.23;;
11835;SDS011;5977;51.972;7.640;2023-12-28T06:54:04;145.33;;;47.40;;
11835;SDS011;5977;51.972;7.640;2023-12-28T06:56:32;145.47;;;47.40;;
11835;SDS011;5977;51.972;7.640;2023-12-28T06:59:01;145.27;;;47.23;;
11835;SDS011;5977;51.972;7.640;2023-12-28T07:01:29;145.73;;;47.37;;
11835;SDS011;5977;51.972;7.640;2023-12-28T07:03:57;145.23;;;47.20;;
11835;SDS011;5977;51.972;7.640;2023-12-28T07:06:25;145.70;;;47.50;;
11835;SDS011;5977;51.972;7.640;2023-12-28T07:08:53;145.37;;;47.30;;
11835;SDS011;5977;51.972;7.640;2023-12-28T07:11:21;145.87;;;47.50;;
11835;SDS011;5977;51.972;7.640;2023-12-28T07:13:49;145.80;;;47.40;;
11835;SDS011;5977;51.972;7.640;2023-12-28T07:16:18;145.23;;;47.30;;
11835;SDS011;5977;51.972;7.640;2023-12-28T07:18:46;145.07;;;47.10;;
11835;SDS011;5977;51.972;7.640;2023-12-28T07:21:14;145.90;;;47.53;;
11835;SDS011;5977;51.972;7.640;2023-12-28T07:23:42;145.83;;;47.47;;
11835;SDS011;5977;51.972;7.640;2023-12-28T07:26:15;146.03;;;47.60;;
11835;SDS011;5977;51.972;7.640;2023-12-28T07:28:43;146.33;;;47.70;;
11835;SDS011;5977;51.972;7.640;2023-12-28T07:31:23;146.07;;;47.67;;
11835;SDS011;5977;51.972;7.640;2023-12-28T07:33:51;145.70;;;47.37;;
11835;SDS011;5977;51.972;7.640;2023-12-28T07:36:20;145.97;;;47.57;;
11835;SDS011;5977;51.972;7.640;2023-12-28T07:38:48;145.60;;;47.50;;
11835;SDS011;5977;51.972;7.640;2023-12-28T07:41:15;146.17;;;47.70;;
11835;SDS011;5977;51.972;7.640;2023-12-28T07:43:43;145.60;;;47.40;;
11835;SDS011;5977;51.972;7.640;2023-12-28T07:46:12;146.67;;;47.77;;
11835;SDS011;5977;51.972;7.640;2023-12-28T07:48:41;145.77;;;47.33;;
11835;SDS011;5977;51.972;7.640;2023-12-28T07:51:09;146.20;;;47.57;;
11835;SDS011;5977;51.972;7.640;2023-12-28T07:53:40;146.87;;;47.80;;
11835;SDS011;5977;51.972;7.640;2023-12-28T07:56:08;146.00;;;47.47;;
11835;SDS011;5977;51.972;7.640;2023-12-28T07:58:36;146.27;;;47.67;;
11835;SDS011;5977;51.972;7.640;2023-12-28T08:01:09;145.57;;;47.30;;
11835;SDS011;5977;51.972;7.640;2023-12-28T08:03:37;146.93;;;47.87;;
11835;SDS011;5977;51.972;7.640;2023-12-28T08:06:06;146.27;;;47.60;;
11835;SDS011;5977;51.972;7.640;2023-12-28T08:08:34;145.70;;;47.57;;
11835;SDS011;5977;51.972;7.640;2023-12-28T08:11:03;146.03;;;47.57;;
11835;SDS011;5977;51.972;7.640;2023-12-28T08:13:31;146.27;;;47.60;;
11835;SDS011;5977;51.972;7.640;2023-12-28T08:15:59;146.70;;;47.73;;
11835;SDS011;5977;51.972;7.640;2023-12-28T08:18:29;145.90;;;47.57;;
11835;SDS011;5977;51.972;7.640;2023-12-28T08:20:57;145.53;;;47.33;;
11835;SDS011;5977;51.972;7.640;2023-12-28T08:23:26;145.90;;;47.43;;
11835;SDS011;5977;51.972;7.640;2023-12-28T08:25:54;146.23;;;47.53;;
11835;SDS011;5977;51.972;7.640;2023-12-28T08:28:22;146.27;;;47.57;;
11835;SDS011;5977;51.972;7.640;2023-12-28T08:30:50;145.97;;;47.40;;
11835;SDS011;5977;51.972;7.640;2023-12-28T08:33:18;147.00;;;47.90;;
11835;SDS011;5977;51.972;7.640;2023-12-28T08:35:46;145.80;;;47.40;;
11835;SDS011;5977;51.972;7.640;2023-12-28T08:38:14;146.53;;;47.70;;
11835;SDS011;5977;51.972;7.640;2023-12-28T08:40:43;146.30;;;47.73;;
11835;SDS011;5977;51.972;7.640;2023-12-28T08:43:11;146.67;;;47.97;;
11835;SDS011;5977;51.972;7.640;2023-12-28T08:45:39;146.27;;;47.67;;
11835;SDS011;5977;51.972;7.640;2023-12-28T08:48:07;146.07;;;47.63;;
11835;SDS011;5977;51.972;7.640;2023-12-28T08:50:35;146.47;;;47.60;;
11835;SDS011;5977;51.972;7.640;2023-12-28T08:53:03;146.43;;;47.87;;
11835;SDS011;5977;51.972;7.640;2023-12-28T08:55:31;146.07;;;47.60;;
11835;SDS011;5977;51.972;7.640;2023-12-28T08:58:01;145.00;;;47.03;;
11835;SDS011;5977;51.972;7.640;2023-12-28T09:00:29;144.60;;;46.93;;
11835;SDS011;5977;51.972;7.640;2023-12-28T09:02:57;145.07;;;47.13;;
11835;SDS011;5977;51.972;7.640;2023-12-28T09:05:25;145.00;;;47.07;;
11835;SDS011;5977;51.972;7.640;2023-12-28T09:07:53;145.30;;;47.27;;
11835;SDS011;5977;51.972;7.640;2023-12-28T09:10:22;145.30;;;47.30;;
11835;SDS011;5977;51.972;7.640;2023-12-28T09:12:50;144.67;;;46.87;;
11835;SDS011;5977;51.972;7.640;2023-12-28T09:15:19;144.67;;;47.07;;
11835;SDS011;5977;51.972;7.640;2023-12-28T09:17:47;144.77;;;47.30;;
11835;SDS011;5977;51.972;7.640;2023-12-28T09:20:16;144.57;;;46.97;;
11835;SDS011;5977;51.972;7.640;2023-12-28T09:22:44;144.60;;;46.87;;
11835;SDS011;5977;51.972;7.640;2023-12-28T09:25:12;144.67;;;46.93;;
11835;SDS011;5977;51.972;7.640;2023-12-28T09:27:40;144.80;;;47.20;;
11835;SDS011;5977;51.972;7.640;2023-12-28T09:30:08;144.50;;;46.97;;
11835;SDS011;5977;51.972;7.640;2023-12-28T09:32:37;144.37;;;47.00;;
11835;SDS011;5977;51.972;7.640;2023-12-28T09:35:06;144.57;;;47.07;;
11835;SDS011;5977;51.972;7.640;2023-12-28T09:37:34;144.77;;;47.20;;
11835;SDS011;5977;51.972;7.640;2023-12-28T09:40:02;145.13;;;47.20;;
11835;SDS011;5977;51.972;7.640;2023-12-28T09:42:32;145.10;;;47.23;;
11835;SDS011;5977;51.972;7.640;2023-12-28T09:45:08;144.77;;;47.10;;
11835;SDS011;5977;51.972;7.640;2023-12-28T09:47:38;144.97;;;47.10;;
11835;SDS011;5977;51.972;7.640;2023-12-28T09:50:07;145.13;;;47.20;;
11835;SDS011;5977;51.972;7.640;2023-12-28T09:52:35;145.20;;;47.23;;
11835;SDS011;5977;51.972;7.640;2023-12-28T09:55:03;144.93;;;47.10;;
11835;SDS011;5977;51.972;7.640;2023-12-28T09:57:31;145.17;;;47.17;;
11835;SDS011;5977;51.972;7.640;2023-12-28T10:00:00;144.73;;;47.07;;
11835;SDS011;5977;51.972;7.640;2023-12-28T10:02:38;144.90;;;47.10;;
11835;SDS011;5977;51.972;7.640;2023-12-28T10:05:08;145.30;;;47.27;;
11835;SDS011;5977;51.972;7.640;2023-12-28T10:07:40;145.03;;;47.20;;
11835;SDS011;5977;51.972;7.640;2023-12-28T10:10:12;145.03;;;47.10;;
11835;SDS011;5977;51.972;7.640;2023-12-28T10:12:39;145.70;;;47.50;;
11835;SDS011;5977;51.972;7.640;2023-12-28T10:15:07;145.33;;;47.33;;
11835;SDS011;5977;51.972;7.640;2023-12-28T10:17:36;144.80;;;47.03;;
11835;SDS011;5977;51.972;7.640;2023-12-28T10:20:06;144.97;;;47.20;;
11835;SDS011;5977;51.972;7.640;2023-12-28T10:22:36;145.63;;;47.40;;
11835;SDS011;5977;51.972;7.640;2023-12-28T10:25:04;144.80;;;47.13;;
11835;SDS011;5977;51.972;7.640;2023-12-28T10:27:36;144.13;;;46.90;;
11835;SDS011;5977;51.972;7.640;2023-12-28T10:30:06;145.00;;;47.13;;
11835;SDS011;5977;51.972;7.640;2023-12-28T10:32:35;144.77;;;47.10;;
11835;SDS011;5977;51.972;7.640;2023-12-28T10:35:08;144.47;;;46.97;;
11835;SDS011;5977;51.972;7.640;2023-12-28T10:37:37;145.23;;;47.23;;
11835;SDS011;5977;51.972;7.640;2023-12-28T10:40:12;145.00;;;47.10;;
11835;SDS011;5977;51.972;7.640;2023-12-28T10:42:44;144.53;;;47.00;;
11835;SDS011;5977;51.972;7.640;2023-12-28T10:45:18;144.57;;;47.07;;
11835;SDS011;5977;51.972;7.640;2023-12-28T10:47:52;145.37;;;47.27;;
11835;SDS011;5977;51.972;7.640;2023-12-28T10:50:35;145.20;;;47.30;;
11835;SDS011;5977;51.972;7.640;2023-12-28T10:53:11;144.70;;;47.17;;
11835;SDS011;5977;51.972;7.640;2023-12-28T10:55:48;144.77;;;47.10;;
11835;SDS011;5977;51.972;7.640;2023-12-28T10:58:27;144.27;;;46.80;;
11835;SDS011;5977;51.972;7.640;2023-12-28T11:01:02;145.37;;;47.27;;
11835;SDS011;5977;51.972;7.640;2023-12-28T11:03:37;143.70;;;46.60;;
11835;SDS011;5977;51.972;7.640;2023-12-28T11:06:08;144.93;;;47.20;;
11835;SDS011;5977;51.972;7.640;2023-12-28T11:08:37;144.77;;;47.10;;
11835;SDS011;5977;51.972;7.640;2023-12-28T11:11:09;144.33;;;47.00;;
11835;SDS011;5977;51.972;7.640;2023-12-28T11:13:38;145.43;;;47.40;;
11835;SDS011;5977;51.972;7.640;2023-12-28T11:16:07;146.23;;;47.70;;
11835;SDS011;5977;51.972;7.640;2023-12-28T11:18:36;146.77;;;47.87;;
11835;SDS011;5977;51.972;7.640;2023-12-28T11:21:04;148.43;;;48.57;;
11835;SDS011;5977;51.972;7.640;2023-12-28T11:23:36;149.33;;;48.70;;
11835;SDS011;5977;51.972;7.640;2023-12-28T11:26:14;149.87;;;48.97;;
11835;SDS011;5977;51.972;7.640;2023-12-28T11:28:43;150.50;;;49.13;;
11835;SDS011;5977;51.972;7.640;2023-12-28T11:31:13;150.07;;;49.03;;
11835;SDS011;5977;51.972;7.640;2023-12-28T11:33:45;150.87;;;49.27;;
11835;SDS011;5977;51.972;7.640;2023-12-28T11:36:19;151.43;;;49.57;;
11835;SDS011;5977;51.972;7.640;2023-12-28T11:38:51;150.80;;;49.23;;
11835;SDS011;5977;51.972;7.640;2023-12-28T11:41:21;151.70;;;49.63;;
11835;SDS011;5977;51.972;7.640;2023-12-28T11:43:53;151.13;;;49.30;;
11835;SDS011;5977;51.972;7.640;2023-12-28T11:46:21;151.60;;;49.77;;
11835;SDS011;5977;51.972;7.640;2023-12-28T11:48:49;151.47;;;49.33;;
11835;SDS011;5977;51.972;7.640;2023-12-28T11:51:17;151.23;;;49.20;;
11835;SDS011;5977;51.972;7.640;2023-12-28T11:53:46;150.87;;;49.20;;
11835;SDS011;5977;51.972;7.640;2023-12-28T11:56:16;150.77;;;49.07;;
11835;SDS011;5977;51.972;7.640;2023-12-28T11:58:44;151.47;;;49.53;;
11835;SDS011;5977;51.972;7.640;2023-12-28T12:01:14;152.17;;;49.77;;
11835;SDS011;5977;51.972;7.640;2023-12-28T12:03:42;151.87;;;49.57;;
11835;SDS011;5977;51.972;7.640;2023-12-28T12:06:10;151.67;;;49.57;;
11835;SDS011;5977;51.972;7.640;2023-12-28T12:08:38;152.20;;;49.93;;
11835;SDS011;5977;51.972;7.640;2023-12-28T12:11:06;152.13;;;49.67;;
11835;SDS011;5977;51.972;7.640;2023-12-28T12:13:35;151.77;;;49.70;;
11835;SDS011;5977;51.972;7.640;2023-12-28T12:16:03;152.57;;;50.07;;
11835;SDS011;5977;51.972;7.640;2023-12-28T12:18:33;152.30;;;49.77;;
11835;SDS011;5977;51.972;7.640;2023-12-28T12:21:02;151.83;;;49.57;;
11835;SDS011;5977;51.972;7.640;2023-12-28T12:23:32;151.67;;;49.63;;
11835;SDS011;5977;51.972;7.640;2023-12-28T12:26:00;151.20;;;49.37;;
11835;SDS011;5977;51.972;7.640;2023-12-28T12:28:32;152.50;;;49.77;;
11835;SDS011;5977;51.972;7.640;2023-12-28T12:31:01;151.90;;;49.70;;
11835;SDS011;5977;51.972;7.640;2023-12-28T12:33:30;152.53;;;49.77;;
11835;SDS011;5977;51.972;7.640;2023-12-28T12:35:59;151.93;;;49.47;;
11835;SDS011;5977;51.972;7.640;2023-12-28T12:38:28;152.00;;;49.67;;
11835;SDS011;5977;51.972;7.640;2023-12-28T12:40:57;152.47;;;49.90;;
11835;SDS011;5977;51.972;7.640;2023-12-28T12:43:25;152.60;;;50.03;;
11835;SDS011;5977;51.972;7.640;2023-12-28T12:45:54;151.83;;;49.63;;
11835;SDS011;5977;51.972;7.640;2023-12-28T12:48:23;152.50;;;49.67;;
11835;SDS011;5977;51.972;7.640;2023-12-28T12:50:51;152.30;;;49.67;;
11835;SDS011;5977;51.972;7.640;2023-12-28T12:53:19;152.57;;;49.73;;
11835;SDS011;5977;51.972;7.640;2023-12-28T12:55:47;153.47;;;50.13;;
11835;SDS011;5977;51.972;7.640;2023-12-28T12:58:15;153.03;;;50.03;;
11835;SDS011;5977;51.972;7.640;2023-12-28T13:00:44;152.63;;;49.93;;
11835;SDS011;5977;51.972;7.640;2023-12-28T13:03:13;152.47;;;49.57;;
11835;SDS011;5977;51.972;7.640;2023-12-28T13:05:42;152.47;;;49.80;;
11835;SDS011;5977;51.972;7.640;2023-12-28T13:08:10;153.60;;;50.33;;
11835;SDS011;5977;51.972;7.640;2023-12-28T13:10:38;152.70;;;49.97;;
11835;SDS011;5977;51.972;7.640;2023-12-28T13:13:06;152.83;;;50.13;;
11835;SDS011;5977;51.972;7.640;2023-12-28T13:15:34;153.70;;;50.27;;
11835;SDS011;5977;51.972;7.640;2023-12-28T13:18:02;152.47;;;49.63;;
11835;SDS011;5977;51.972;7.640;2023-12-28T13:20:31;152.20;;;49.53;;
11835;SDS011;5977;51.972;7.640;2023-12-28T13:23:00;152.80;;;50.00;;
11835;SDS011;5977;51.972;7.640;2023-12-28T13:25:32;153.63;;;50.37;;
11835;SDS011;5977;51.972;7.640;2023-12-28T13:28:00;153.00;;;49.90;;
11835;SDS011;5977;51.972;7.640;2023-12-28T13:30:28;153.90;;;50.20;;
11835;SDS011;5977;51.972;7.640;2023-12-28T13:32:56;152.80;;;49.97;;
11835;SDS011;5977;51.972;7.640;2023-12-28T13:35:25;152.97;;;50.03;;
11835;SDS011;5977;51.972;7.640;2023-12-28T13:37:52;152.70;;;49.70;;
11835;SDS011;5977;51.972;7.640;2023-12-28T13:40:22;153.27;;;50.10;;
11835;SDS011;5977;51.972;7.640;2023-12-28T13:42:50;152.73;;;49.87;;
11835;SDS011;5977;51.972;7.640;2023-12-28T13:45:18;153.00;;;50.03;;
11835;SDS011;5977;51.972;7.640;2023-12-28T13:47:46;152.20;;;49.50;;
11835;SDS011;5977;51.972;7.640;2023-12-28T13:50:14;150.17;;;48.60;;
11835;SDS011;5977;51.972;7.640;2023-12-28T13:52:42;149.73;;;48.43;;
11835;SDS011;5977;51.972;7.640;2023-12-28T13:55:10;149.43;;;48.30;;
11835;SDS011;5977;51.972;7.640;2023-12-28T13:57:39;148.27;;;47.87;;
11835;SDS011;5977;51.972;7.640;2023-12-28T14:00:08;148.03;;;47.83;;
11835;SDS011;5977;51.972;7.640;2023-12-28T14:02:40;147.40;;;47.57;;
11835;SDS011;5977;51.972;7.640;2023-12-28T14:05:08;147.20;;;47.47;;
11835;SDS011;5977;51.972;7.640;2023-12-28T14:07:36;147.13;;;47.57;;
11835;SDS011;5977;51.972;7.640;2023-12-28T14:10:04;147.17;;;47.47;;
11835;SDS011;5977;51.972;7.640;2023-12-28T14:12:33;146.87;;;47.40;;
11835;SDS011;5977;51.972;7.640;2023-12-28T14:15:02;146.70;;;47.43;;
11835;SDS011;5977;51.972;7.640;2023-12-28T14:17:31;146.13;;;47.30;;
11835;SDS011;5977;51.972;7.640;2023-12-28T14:19:59;146.37;;;47.20;;
11835;SDS011;5977;51.972;7.640;2023-12-28T14:22:27;146.33;;;47.23;;
11835;SDS011;5977;51.972;7.640;2023-12-28T14:24:55;146.13;;;47.30;;
11835;SDS011;5977;51.972;7.640;2023-12-28T14:27:25;146.07;;;47.20;;
11835;SDS011;5977;51.972;7.640;2023-12-28T14:29:56;146.37;;;47.37;;